createdAt,value
2022-11-03T00:02:01.021Z,14.23
2022-11-03T00:04:28.284Z,11.30
2022-11-03T00:06:56.119Z,15.37
2022-11-03T00:09:24.244Z,8.17
2022-11-03T00:11:52.206Z,10.23
2022-11-03T00:14:19.811Z,8.13
2022-11-03T00:16:46.876Z,10.80
2022-11-03T00:19:16.259Z,8.93
2022-11-03T00:21:43.698Z,8.10
2022-11-03T00:24:10.999Z,6.90
2022-11-03T00:26:38.450Z,10.67
2022-11-03T00:29:10.680Z,8.43
2022-11-03T00:31:39.509Z,6.82
2022-11-03T00:34:07.413Z,8.93
2022-11-03T00:36:39.864Z,32.50
2022-11-03T00:39:07.510Z,27.35
2022-11-03T00:41:34.739Z,20.57
2022-11-03T00:44:01.927Z,9.53
2022-11-03T00:46:30.492Z,19.93
2022-11-03T00:48:57.598Z,22.20
2022-11-03T00:51:27.295Z,31.30
2022-11-03T00:53:59.233Z,23.00
2022-11-03T00:56:28.864Z,16.17
2022-11-03T00:58:57.869Z,17.85
2022-11-03T01:01:27.617Z,12.10
2022-11-03T01:04:15.637Z,27.70
2022-11-03T01:06:51.486Z,13.43
2022-11-03T01:09:19.442Z,24.63
2022-11-03T01:12:15.296Z,11.83
2022-11-03T01:14:45.454Z,11.97
2022-11-03T01:17:15.196Z,10.63
2022-11-03T01:19:42.245Z,12.85
2022-11-03T01:22:10.960Z,9.27
2022-11-03T01:24:42.169Z,11.70
2022-11-03T01:27:15.614Z,10.40
2022-11-03T01:29:42.822Z,8.73
2022-11-03T01:32:10.473Z,9.00
2022-11-03T01:34:38.077Z,9.83
2022-11-03T01:37:05.489Z,10.20
2022-11-03T01:39:32.502Z,9.80
2022-11-03T01:41:59.476Z,9.80
2022-11-03T01:44:32.763Z,9.07
2022-11-03T01:47:15.274Z,8.27
2022-11-03T01:49:54.670Z,8.20
2022-11-03T01:52:42.933Z,8.90
2022-11-03T01:55:23.263Z,12.65
2022-11-03T01:58:02.738Z,11.97
2022-11-03T02:00:29.712Z,11.17
2022-11-03T02:02:57.084Z,11.63
2022-11-03T02:05:25.570Z,11.40
2022-11-03T02:10:41.557Z,14.73
2022-11-03T02:13:21.925Z,15.03
2022-11-03T02:15:56.111Z,13.00
2022-11-03T02:18:29.326Z,10.93
2022-11-03T02:21:16.128Z,10.87
2022-11-03T02:24:02.867Z,10.80
2022-11-03T02:26:30.546Z,10.73
2022-11-03T02:28:57.694Z,11.47
2022-11-03T02:31:27.702Z,12.70
2022-11-03T02:34:01.869Z,11.40
2022-11-03T02:36:41.179Z,12.40
2022-11-03T02:39:20.748Z,28.57
2022-11-03T02:41:49.229Z,17.20
2022-11-03T02:44:20.571Z,14.93
2022-11-03T02:46:50.853Z,11.57
2022-11-03T02:49:17.884Z,11.57
2022-11-03T02:51:44.844Z,13.57
2022-11-03T02:54:29.322Z,13.10
2022-11-03T02:57:12.236Z,12.00
2022-11-03T02:59:46.565Z,13.17
2022-11-03T03:02:22.255Z,12.50
2022-11-03T03:04:56.143Z,12.57
2022-11-03T03:07:29.458Z,12.53
2022-11-03T03:09:56.393Z,11.80
2022-11-03T03:12:24.423Z,11.37
2022-11-03T03:14:52.531Z,10.87
2022-11-03T03:17:25.994Z,12.60
2022-11-03T03:20:02.557Z,11.87
2022-11-03T03:22:32.482Z,13.43
2022-11-03T03:25:26.724Z,19.73
2022-11-03T03:28:06.565Z,22.00
2022-11-03T03:30:36.270Z,29.47
2022-11-03T03:33:07.534Z,40.00
2022-11-03T03:35:38.454Z,26.00
2022-11-03T03:38:13.994Z,17.20
2022-11-03T03:40:44.145Z,29.93
2022-11-03T03:43:14.253Z,13.30
2022-11-03T03:45:43.328Z,15.83
2022-11-03T03:48:10.550Z,12.27
2022-11-03T03:50:39.942Z,11.43
2022-11-03T03:53:11.623Z,10.83
2022-11-03T03:55:44.206Z,32.73
2022-11-03T03:58:13.792Z,36.70
2022-11-03T04:00:41.907Z,18.87
2022-11-03T04:03:23.615Z,10.10
2022-11-03T04:05:51.461Z,15.90
2022-11-03T04:08:18.710Z,24.20
2022-11-03T04:11:04.943Z,33.33
2022-11-03T04:13:52.223Z,28.07
2022-11-03T04:16:37.754Z,34.73
2022-11-03T04:19:23.329Z,35.47
2022-11-03T04:22:08.977Z,31.67
2022-11-03T04:24:35.976Z,21.93
2022-11-03T04:27:17.981Z,26.53
2022-11-03T04:29:45.024Z,25.40
2022-11-03T04:32:17.754Z,24.20
2022-11-03T04:34:48.589Z,17.80
2022-11-03T04:37:16.921Z,17.63
2022-11-03T04:42:22.653Z,17.73
2022-11-03T04:44:50.166Z,22.57
2022-11-03T04:47:18.251Z,16.70
2022-11-03T04:49:47.325Z,12.63
2022-11-03T04:52:20.010Z,10.80
2022-11-03T04:54:49.444Z,8.90
2022-11-03T04:57:17.579Z,16.03
2022-11-03T04:59:49.090Z,14.13
2022-11-03T05:02:20.120Z,10.80
2022-11-03T05:04:47.544Z,11.43
2022-11-03T05:07:34.644Z,10.93
2022-11-03T05:10:02.533Z,13.20
2022-11-03T05:12:31.034Z,10.60
2022-11-03T05:14:59.119Z,10.93
2022-11-03T05:17:28.017Z,10.10
2022-11-03T05:20:03.900Z,8.97
2022-11-03T05:22:37.845Z,13.70
2022-11-03T05:25:40.517Z,20.70
2022-11-03T05:28:33.689Z,17.77
2022-11-03T05:31:01.243Z,12.33
2022-11-03T05:33:30.696Z,20.43
2022-11-03T05:36:02.320Z,33.30
2022-11-03T05:38:33.644Z,11.80
2022-11-03T05:41:01.470Z,23.30
2022-11-03T05:43:30.036Z,34.57
2022-11-03T05:46:02.138Z,28.43
2022-11-03T05:48:35.368Z,27.23
2022-11-03T05:51:13.605Z,25.63
2022-11-03T05:53:43.482Z,21.70
2022-11-03T05:56:19.041Z,29.17
2022-11-03T05:58:48.453Z,15.40
2022-11-03T06:01:35.741Z,18.97
2022-11-03T06:04:23.104Z,18.67
2022-11-03T06:07:02.322Z,12.70
2022-11-03T06:09:32.361Z,23.43
2022-11-03T06:12:01.743Z,15.60
2022-11-03T06:14:31.387Z,18.93
2022-11-03T06:17:02.062Z,27.50
2022-11-03T06:19:39.704Z,23.40
2022-11-03T06:22:17.788Z,22.70
2022-11-03T06:24:45.847Z,24.53
2022-11-03T06:27:24.129Z,22.00
2022-11-03T06:29:57.390Z,18.87
2022-11-03T06:32:24.738Z,26.23
2022-11-03T06:34:57.737Z,22.40
2022-11-03T06:37:34.862Z,40.10
2022-11-03T06:40:10.928Z,15.00
2022-11-03T06:42:41.466Z,13.00
2022-11-03T06:45:25.852Z,16.13
2022-11-03T06:47:54.031Z,16.93
2022-11-03T06:50:33.497Z,13.43
2022-11-03T06:53:04.525Z,15.70
2022-11-03T06:55:34.102Z,12.23
2022-11-03T06:58:14.417Z,26.23
2022-11-03T07:00:45.894Z,20.40
2022-11-03T07:03:25.507Z,21.03
2022-11-03T07:05:59.260Z,21.23
2022-11-03T07:08:31.427Z,29.13
2022-11-03T07:11:05.262Z,18.00
2022-11-03T07:13:34.268Z,18.60
2022-11-03T07:16:01.349Z,22.87
2022-11-03T07:18:31.076Z,23.83
2022-11-03T07:20:59.055Z,26.50
2022-11-03T07:23:30.344Z,23.83
2022-11-03T07:26:02.200Z,31.70
2022-11-03T07:28:36.691Z,26.43
2022-11-03T07:31:16.634Z,23.70
2022-11-03T07:33:44.089Z,29.33
2022-11-03T07:36:18.794Z,18.50
2022-11-03T07:38:50.485Z,23.37
2022-11-03T07:41:20.842Z,23.60
2022-11-03T07:43:54.881Z,16.20
2022-11-03T07:46:23.218Z,15.03
2022-11-03T07:49:01.346Z,10.10
2022-11-03T07:51:32.273Z,11.57
2022-11-03T07:54:08.958Z,10.67
2022-11-03T07:57:06.177Z,16.93
2022-11-03T07:59:39.362Z,19.33
2022-11-03T08:02:33.588Z,27.83
2022-11-03T08:05:01.076Z,32.03
2022-11-03T08:07:28.776Z,24.37
2022-11-03T08:09:56.417Z,27.97
2022-11-03T08:12:23.890Z,15.73
2022-11-03T08:14:50.890Z,9.43
2022-11-03T08:17:17.849Z,11.13
2022-11-03T08:19:44.802Z,8.30
2022-11-03T08:22:11.722Z,6.50
2022-11-03T08:24:38.684Z,6.70
2022-11-03T08:27:05.707Z,7.00
2022-11-03T08:29:32.736Z,6.03
2022-11-03T08:31:59.758Z,5.53
2022-11-03T08:34:26.725Z,4.53
2022-11-03T08:36:53.690Z,4.87
2022-11-03T08:39:20.612Z,4.70
2022-11-03T08:41:47.550Z,6.17
2022-11-03T08:44:14.469Z,7.43
2022-11-03T08:46:41.463Z,16.63
2022-11-03T08:49:08.499Z,15.33
2022-11-03T08:51:37.892Z,8.77
2022-11-03T08:54:08.453Z,8.57
2022-11-03T08:56:35.393Z,6.03
2022-11-03T08:59:02.402Z,5.93
2022-11-03T09:01:29.412Z,4.80
2022-11-03T09:03:56.444Z,5.40
2022-11-03T09:06:23.470Z,7.10
2022-11-03T09:11:37.437Z,5.80
2022-11-03T09:14:04.447Z,6.27
2022-11-03T09:16:31.397Z,5.77
2022-11-03T09:18:58.557Z,5.80
2022-11-03T09:21:25.497Z,4.27
2022-11-03T09:23:52.488Z,3.90
2022-11-03T09:26:19.432Z,4.10
2022-11-03T09:28:46.437Z,4.43
2022-11-03T09:31:13.375Z,4.47
2022-11-03T09:33:40.353Z,4.33
2022-11-03T09:36:07.602Z,3.87
2022-11-03T09:38:34.523Z,4.20
2022-11-03T09:41:06.705Z,3.13
2022-11-03T09:43:41.042Z,3.17
2022-11-03T09:46:08.084Z,2.17
2022-11-03T09:48:35.029Z,1.92
2022-11-03T09:51:02.132Z,2.42
2022-11-03T09:53:31.051Z,2.42
2022-11-03T09:55:58.147Z,2.33
2022-11-03T09:58:26.072Z,1.80
2022-11-03T10:00:53.123Z,2.55
2022-11-03T10:03:20.909Z,3.67
2022-11-03T10:05:48.316Z,2.78
2022-11-03T10:08:24.326Z,2.90
2022-11-03T10:10:52.212Z,2.45
2022-11-03T10:13:24.161Z,2.78
2022-11-03T10:15:51.171Z,2.83
2022-11-03T10:18:19.151Z,3.20
2022-11-03T10:20:46.390Z,3.65
2022-11-03T10:23:13.339Z,2.00
2022-11-03T10:25:45.166Z,2.28
2022-11-03T10:28:21.028Z,2.47
2022-11-03T10:33:52.325Z,3.65
2022-11-03T10:36:19.277Z,2.63
2022-11-03T10:38:47.995Z,2.80
2022-11-03T10:41:23.145Z,2.80
2022-11-03T10:44:02.517Z,5.43
2022-11-03T10:46:49.087Z,5.33
2022-11-03T10:49:20.519Z,4.57
2022-11-03T10:51:50.835Z,7.47
2022-11-03T10:54:20.539Z,5.30
2022-11-03T10:56:48.615Z,4.43
2022-11-03T10:59:22.731Z,6.97
2022-11-03T11:01:49.874Z,7.90
2022-11-03T11:04:18.928Z,6.80
2022-11-03T11:06:46.687Z,11.43
2022-11-03T11:09:33.549Z,7.43
2022-11-03T11:12:24.187Z,3.03
2022-11-03T11:15:02.823Z,2.47
2022-11-03T11:17:50.081Z,2.43
2022-11-03T11:20:21.511Z,2.17
2022-11-03T11:22:50.179Z,2.97
2022-11-03T11:25:20.075Z,3.97
2022-11-03T11:27:55.605Z,8.80
2022-11-03T11:30:30.714Z,7.03
2022-11-03T11:33:01.416Z,5.63
2022-11-03T11:35:28.321Z,5.27
2022-11-03T11:37:55.311Z,5.65
2022-11-03T11:40:25.304Z,5.75
2022-11-03T11:43:04.814Z,5.13
2022-11-03T11:46:10.011Z,5.60
2022-11-03T11:48:37.061Z,3.92
2022-11-03T11:51:08.471Z,1.97
2022-11-03T11:53:42.110Z,2.03
2022-11-03T11:56:14.185Z,1.73
2022-11-03T11:58:54.116Z,1.60
2022-11-03T12:01:27.859Z,1.92
2022-11-03T12:04:16.412Z,1.80
2022-11-03T12:09:23.059Z,1.80
2022-11-03T12:11:56.148Z,1.67
2022-11-03T12:14:24.325Z,1.80
2022-11-03T12:16:52.007Z,1.70
2022-11-03T12:19:39.322Z,2.37
2022-11-03T12:22:29.341Z,2.50
2022-11-03T12:25:01.322Z,2.50
2022-11-03T12:27:28.984Z,2.20
2022-11-03T12:29:57.908Z,2.00
2022-11-03T12:32:32.955Z,2.77
2022-11-03T12:35:03.133Z,2.30
2022-11-03T12:37:30.133Z,2.20
2022-11-03T12:39:57.072Z,2.30
2022-11-03T12:42:25.357Z,2.87
2022-11-03T12:44:53.155Z,2.40
2022-11-03T12:47:20.686Z,2.73
2022-11-03T12:49:47.745Z,2.70
2022-11-03T12:52:15.130Z,2.60
2022-11-03T12:54:42.503Z,2.53
2022-11-03T12:57:09.815Z,3.07
2022-11-03T12:59:36.871Z,2.27
2022-11-03T13:02:04.142Z,2.67
2022-11-03T13:04:31.323Z,2.43
2022-11-03T13:06:58.261Z,3.00
2022-11-03T13:09:25.279Z,3.67
2022-11-03T13:12:10.782Z,2.70
2022-11-03T13:14:37.763Z,3.40
2022-11-03T13:17:04.784Z,4.80
2022-11-03T13:19:31.814Z,3.27
2022-11-03T13:21:58.841Z,3.37
2022-11-03T13:24:25.855Z,5.33
2022-11-03T13:26:52.895Z,4.43
2022-11-03T13:29:19.865Z,4.43
2022-11-03T13:31:46.910Z,3.00
2022-11-03T13:34:13.910Z,3.87
2022-11-03T13:36:40.877Z,3.17
2022-11-03T13:39:07.826Z,2.80
2022-11-03T13:41:34.784Z,3.73
2022-11-03T13:44:01.717Z,3.10
2022-11-03T13:46:28.665Z,3.33
2022-11-03T13:51:42.692Z,5.00
2022-11-03T13:59:43.659Z,3.10
2022-11-03T14:04:58.249Z,3.00
2022-11-03T14:07:25.218Z,3.47
2022-11-03T14:09:52.247Z,3.40
2022-11-03T14:12:31.202Z,3.53
2022-11-03T14:15:06.269Z,4.00
2022-11-03T14:17:33.389Z,4.53
2022-11-03T14:20:04.062Z,3.43
2022-11-03T14:22:32.133Z,3.40
2022-11-03T14:24:59.448Z,3.33
2022-11-03T14:27:26.570Z,5.73
2022-11-03T14:29:53.748Z,4.20
2022-11-03T14:32:21.622Z,4.30
2022-11-03T14:34:49.017Z,4.13
2022-11-03T14:37:16.415Z,4.33
2022-11-03T14:39:43.454Z,4.03
2022-11-03T14:42:16.654Z,4.87
2022-11-03T14:44:45.451Z,4.57
2022-11-03T14:47:23.309Z,4.10
2022-11-03T14:49:50.341Z,3.80
2022-11-03T14:52:18.021Z,4.60
2022-11-03T14:54:45.071Z,3.70
2022-11-03T14:57:12.048Z,4.07
2022-11-03T14:59:39.059Z,4.43
2022-11-03T15:02:06.401Z,5.27
2022-11-03T15:04:33.638Z,4.43
2022-11-03T15:07:00.713Z,4.20
2022-11-03T15:09:27.716Z,3.80
2022-11-03T15:11:54.707Z,4.43
2022-11-03T15:14:21.742Z,4.70
2022-11-03T15:16:48.671Z,4.67
2022-11-03T15:19:15.791Z,4.20
2022-11-03T15:21:42.870Z,5.10
2022-11-03T15:26:56.993Z,4.40
2022-11-03T15:29:24.174Z,4.70
2022-11-03T15:31:51.274Z,4.83
2022-11-03T15:34:18.430Z,4.20
2022-11-03T15:36:45.387Z,5.00
2022-11-03T15:39:13.471Z,5.27
2022-11-03T15:41:40.795Z,4.83
2022-11-03T15:44:08.059Z,4.70
2022-11-03T15:46:35.611Z,5.73
2022-11-03T15:49:03.722Z,4.90
2022-11-03T15:51:30.851Z,4.63
2022-11-03T15:53:59.084Z,10.40
2022-11-03T15:56:29.907Z,26.27
2022-11-03T15:58:56.998Z,16.27
2022-11-03T16:01:24.177Z,4.97
2022-11-03T16:03:51.300Z,4.80
2022-11-03T16:06:18.241Z,5.70
2022-11-03T16:08:45.236Z,6.90
2022-11-03T16:11:12.266Z,9.77
2022-11-03T16:13:39.682Z,5.00
2022-11-03T16:16:07.185Z,5.00
2022-11-03T16:18:34.750Z,4.30
2022-11-03T16:21:01.824Z,4.63
2022-11-03T16:23:28.752Z,4.97
2022-11-03T16:25:55.819Z,7.13
2022-11-03T16:28:23.414Z,9.00
2022-11-03T16:30:54.332Z,6.07
2022-11-03T16:33:21.754Z,4.43
2022-11-03T16:35:48.950Z,6.17
2022-11-03T16:38:16.164Z,6.20
2022-11-03T16:40:43.638Z,5.43
2022-11-03T16:43:11.010Z,5.03
2022-11-03T16:45:38.674Z,6.63
2022-11-03T16:48:06.656Z,7.07
2022-11-03T16:50:34.332Z,9.13
2022-11-03T16:53:01.460Z,6.27
2022-11-03T16:55:28.457Z,5.60
2022-11-03T16:57:55.444Z,7.17
2022-11-03T17:00:24.108Z,6.47
2022-11-03T17:02:51.195Z,7.20
2022-11-03T17:05:20.743Z,8.03
2022-11-03T17:07:53.210Z,6.97
2022-11-03T17:10:21.695Z,5.10
2022-11-03T17:12:49.081Z,5.77
2022-11-03T17:15:17.349Z,6.87
2022-11-03T17:17:44.527Z,5.20
2022-11-03T17:20:12.555Z,5.57
2022-11-03T17:22:40.026Z,6.77
2022-11-03T17:25:09.620Z,4.90
2022-11-03T17:27:46.251Z,5.00
2022-11-03T17:30:26.574Z,6.47
2022-11-03T17:32:58.583Z,5.80
2022-11-03T17:35:41.818Z,7.37
2022-11-03T17:38:14.936Z,5.13
2022-11-03T17:40:44.413Z,4.80
2022-11-03T17:43:22.546Z,5.43
2022-11-03T17:45:49.873Z,5.53
2022-11-03T17:48:16.871Z,5.97
2022-11-03T17:50:49.048Z,5.23
2022-11-03T17:53:22.665Z,6.97
2022-11-03T17:56:08.772Z,6.80
2022-11-03T17:58:45.904Z,5.40
2022-11-03T18:01:19.284Z,5.43
2022-11-03T18:03:46.282Z,4.97
2022-11-03T18:06:19.428Z,4.63
2022-11-03T18:08:47.986Z,6.10
2022-11-03T18:11:38.267Z,6.47
2022-11-03T18:14:05.758Z,5.17
2022-11-03T18:16:32.856Z,5.90
2022-11-03T18:19:00.099Z,3.77
2022-11-03T18:21:28.680Z,4.57
2022-11-03T18:23:56.114Z,4.37
2022-11-03T18:26:25.730Z,4.60
2022-11-03T18:28:53.991Z,4.40
2022-11-03T18:31:34.061Z,4.20
2022-11-03T18:34:05.335Z,5.10
2022-11-03T18:36:34.274Z,4.23
2022-11-03T18:39:02.546Z,4.77
2022-11-03T18:41:39.307Z,4.33
2022-11-03T18:44:15.300Z,5.87
2022-11-03T18:46:42.956Z,4.57
2022-11-03T18:49:09.934Z,4.20
2022-11-03T18:51:37.240Z,4.97
2022-11-03T18:54:04.801Z,4.63
2022-11-03T18:56:35.695Z,4.57
2022-11-03T18:59:05.483Z,4.53
2022-11-03T19:01:32.600Z,3.87
2022-11-03T19:03:59.598Z,4.27
2022-11-03T19:06:26.890Z,7.00
2022-11-03T19:08:59.599Z,3.87
2022-11-03T19:11:27.240Z,5.10
2022-11-03T19:13:55.093Z,3.83
2022-11-03T19:16:24.026Z,5.53
2022-11-03T19:18:52.495Z,3.93
2022-11-03T19:21:24.172Z,4.27
2022-11-03T19:23:58.053Z,4.40
2022-11-03T19:26:58.497Z,4.63
2022-11-03T19:29:29.746Z,3.87
2022-11-03T19:31:57.300Z,4.13
2022-11-03T19:34:27.338Z,4.43
2022-11-03T19:36:54.658Z,3.80
2022-11-03T19:39:30.861Z,3.50
2022-11-03T19:42:20.533Z,4.67
2022-11-03T19:44:49.506Z,4.53
2022-11-03T19:47:19.711Z,4.23
2022-11-03T19:49:47.415Z,4.50
2022-11-03T19:52:15.883Z,5.00
2022-11-03T19:54:46.058Z,4.60
2022-11-03T19:57:14.277Z,5.40
2022-11-03T19:59:43.143Z,4.57
2022-11-03T20:02:11.405Z,4.00
2022-11-03T20:04:39.150Z,3.87
2022-11-03T20:07:06.752Z,5.20
2022-11-03T20:09:34.706Z,4.83
2022-11-03T20:12:04.878Z,4.57
2022-11-03T20:14:31.973Z,3.83
2022-11-03T20:17:10.327Z,3.90
2022-11-03T20:19:37.381Z,3.93
2022-11-03T20:22:05.798Z,4.63
2022-11-03T20:24:33.210Z,4.30
2022-11-03T20:27:01.170Z,4.30
2022-11-03T20:29:34.529Z,5.87
2022-11-03T20:32:01.790Z,4.77
2022-11-03T20:34:28.795Z,4.73
2022-11-03T20:36:56.189Z,5.70
2022-11-03T20:39:24.269Z,4.83
2022-11-03T20:41:53.635Z,4.93
2022-11-03T20:44:20.611Z,5.07
2022-11-03T20:46:47.561Z,5.77
2022-11-03T20:49:14.532Z,6.10
2022-11-03T20:51:43.758Z,5.80
2022-11-03T20:54:17.789Z,5.20
2022-11-03T20:56:45.486Z,4.90
2022-11-03T21:01:43.233Z,5.03
2022-11-03T21:04:18.482Z,4.37
2022-11-03T21:06:45.983Z,5.40
2022-11-03T21:09:15.731Z,4.97
2022-11-03T21:11:43.519Z,4.37
2022-11-03T21:14:26.669Z,4.80
2022-11-03T21:17:12.441Z,5.43
2022-11-03T21:19:42.328Z,5.30
2022-11-03T21:22:50.793Z,4.90
2022-11-03T21:25:16.997Z,4.53
2022-11-03T21:27:44.284Z,5.43
2022-11-03T21:30:12.608Z,5.57
2022-11-03T21:32:39.891Z,5.80
2022-11-03T21:35:08.150Z,6.03
2022-11-03T21:37:35.177Z,5.33
2022-11-03T21:40:02.124Z,5.33
2022-11-03T21:42:47.829Z,5.10
2022-11-03T21:45:15.831Z,4.90
2022-11-03T21:48:02.707Z,5.67
2022-11-03T21:50:29.793Z,5.37
2022-11-03T21:52:58.870Z,4.93
2022-11-03T21:55:25.948Z,5.90
2022-11-03T21:57:52.892Z,5.57
2022-11-03T22:00:19.949Z,7.57
2022-11-03T22:02:46.946Z,5.40
2022-11-03T22:05:13.991Z,5.63
2022-11-03T22:07:41.150Z,6.60
2022-11-03T22:10:08.525Z,6.27
2022-11-03T22:12:35.496Z,6.57
2022-11-03T22:15:21.148Z,8.13
2022-11-03T22:17:48.109Z,9.53
2022-11-03T22:20:33.729Z,6.67
2022-11-03T22:23:19.932Z,5.57
2022-11-03T22:26:08.005Z,6.33
2022-11-03T22:28:34.977Z,10.10
2022-11-03T22:31:23.263Z,7.93
2022-11-03T22:34:08.906Z,7.53
2022-11-03T22:36:35.848Z,6.70
2022-11-03T22:39:21.482Z,6.90
2022-11-03T22:42:07.250Z,6.73
2022-11-03T22:44:52.975Z,6.50
2022-11-03T22:47:20.000Z,6.77
2022-11-03T22:49:46.913Z,6.97
2022-11-03T22:52:14.029Z,5.60
2022-11-03T22:54:40.985Z,5.53
2022-11-03T22:57:11.411Z,7.83
2022-11-03T22:59:38.398Z,7.07
2022-11-03T23:02:05.471Z,6.50
2022-11-03T23:04:32.566Z,5.80
2022-11-03T23:06:59.503Z,5.80
2022-11-03T23:09:26.482Z,6.07
2022-11-03T23:11:53.461Z,5.83
2022-11-03T23:14:21.057Z,5.67
2022-11-03T23:16:48.016Z,6.40
2022-11-03T23:19:34.792Z,5.73
2022-11-03T23:22:01.933Z,6.50
2022-11-03T23:24:47.529Z,5.93
2022-11-03T23:27:14.518Z,6.63
2022-11-03T23:29:41.573Z,6.70
2022-11-03T23:32:08.966Z,6.13
2022-11-03T23:34:35.944Z,6.77
2022-11-03T23:37:03.148Z,5.83
2022-11-03T23:39:30.112Z,6.70
2022-11-03T23:41:57.187Z,5.47
2022-11-03T23:44:24.173Z,6.53
2022-11-03T23:47:09.864Z,6.93
2022-11-03T23:49:36.833Z,5.67
2022-11-03T23:52:03.937Z,6.70
2022-11-03T23:54:31.006Z,6.20
2022-11-03T23:57:16.378Z,5.10
